Observations for Trim Patrick St
| Time | AQI | Temp °C | Hum % | Pres Pa | CO μg/m³ | H₂S μg/m³ | NO μg/m³ | NO₂ μg/m³ | O₃ μg/m³ | SO₂ μg/m³ | PM1 μg/m³ | PM2.5 μg/m³ | PM10 μg/m³ |
|---|---|---|---|---|---|---|---|---|---|---|---|---|---|
| Friday 7 August 2026 | |||||||||||||
| 08:50 | 1 | 21.8 | 56 | 75,080 | 0.18 | 0 | 3.53 | 7.47 | 8.01 | 3.21 | 2.86 | 7.51 | 8.26 |
| 08:49 | 1 | 21.7 | 57 | 75,230 | 0.16 | 0 | 3.43 | 5.84 | 10.77 | 2.62 | 2 | 5.96 | 6.56 |
| 08:48 | 1 | 21.6 | 57 | 75,367 | 0.18 | 0 | 3.34 | 7.09 | 8.39 | 2.55 | 2.86 | 8.22 | 9.05 |
| 08:47 | 1 | 21.5 | 60 | 75,487 | 0.18 | 0 | 3.61 | 7.23 | 16.81 | 2.49 | 2.86 | 7.24 | 7.96 |
| 08:46 | 1 | 21.4 | 58 | 75,648 | 0.19 | 0 | 3.43 | 7.23 | 13.46 | 2.5 | 2.86 | 7.43 | 8.17 |
| 08:45 | 1 | 21.3 | 59 | 75,804 | 0.19 | 0 | 3.4 | 7 | 16.32 | 2.58 | 2.86 | 6.56 | 7.22 |
| 08:44 | 1 | 21.2 | 58 | 75,986 | 0.18 | 0 | 3.41 | 6.72 | 15.33 | 1.72 | 2.86 | 7.42 | 8.16 |
| 08:43 | 1 | 21.1 | 58 | 76,161 | 0.19 | 0 | 3.43 | 4.9 | 5.63 | 1.98 | 2.86 | 6.68 | 7.35 |
| 08:42 | 1 | 21 | 59 | 76,370 | 0.2 | 0 | 3.57 | 6.26 | 7.72 | 1.22 | 2 | 6.58 | 7.24 |
| 08:41 | 1 | 20.9 | 61 | 76,529 | 0.21 | 0 | 3.92 | 8.12 | 24.49 | 1.95 | 2 | 5.7 | 6.27 |
| 08:40 | 1 | 20.9 | 59 | 76,720 | 0.19 | 0 | 3.92 | 6.13 | 12.39 | 1.62 | 2.86 | 6.58 | 7.24 |
| 08:39 | 1 | 20.8 | 60 | 76,920 | 0.21 | 0 | 3.97 | 6.03 | 11.19 | 1.41 | 2.86 | 8.03 | 8.83 |
| 08:38 | 1 | 20.7 | 62 | 77,083 | 0.21 | 0 | 4.33 | 6.56 | 12.59 | 1.66 | 2 | 6.42 | 7.06 |
| 08:37 | 1 | 20.5 | 61 | 77,317 | 0.21 | 0 | 4.47 | 6.3 | 10.85 | 1.55 | 2 | 5.69 | 6.26 |
| 08:36 | 1 | 20.5 | 60 | 77,488 | 0.22 | 0 | 4.41 | 6.26 | 9.07 | 1.08 | 2.86 | 7.24 | 7.96 |
| 08:35 | 1 | 20.3 | 61 | 77,658 | 0.25 | 0 | 4.12 | 6.93 | 11.01 | 1.12 | 3.71 | 7.96 | 8.76 |
| 08:34 | 1 | 20.3 | 62 | 77,846 | 0.23 | 0 | 3.89 | 7.66 | 7.38 | 1.76 | 2 | 6.37 | 7.01 |
| 08:33 | 1 | 20.1 | 62 | 78,047 | 0.25 | 0 | 3.6 | 9.86 | 18.14 | 1.61 | 3.71 | 7.13 | 7.85 |
| 08:32 | 1 | 20.1 | 62 | 78,200 | 0.23 | 0 | 3.71 | 8.51 | 6.85 | 1.39 | 2 | 7.15 | 7.86 |
| 08:31 | 1 | 19.9 | 63 | 78,456 | 0.24 | 0 | 3.87 | 9.11 | 22.28 | 1.36 | 2 | 5.61 | 6.17 |